sensor_id;sensor_type;location;lat;lon;timestamp;pressure;altitude;pressure_sealevel;temperature;humidity
49723;BME280;43484;43.608;1.458;2023-03-21T00:00:27;99964.13;;;10.12;100.00
49723;BME280;43484;43.608;1.458;2023-03-21T00:02:54;99964.47;;;9.97;100.00
49723;BME280;43484;43.608;1.458;2023-03-21T00:05:21;99953.66;;;10.06;100.00
49723;BME280;43484;43.608;1.458;2023-03-21T00:07:48;99959.47;;;10.02;100.00
49723;BME280;43484;43.608;1.458;2023-03-21T00:10:14;99953.44;;;10.00;100.00
49723;BME280;43484;43.608;1.458;2023-03-21T00:13:01;99946.44;;;9.94;100.00
49723;BME280;43484;43.608;1.458;2023-03-21T00:15:28;99941.38;;;9.96;100.00
49723;BME280;43484;43.608;1.458;2023-03-21T00:18:06;99937.66;;;9.88;100.00
49723;BME280;43484;43.608;1.458;2023-03-21T00:20:36;99930.81;;;9.87;100.00
49723;BME280;43484;43.608;1.458;2023-03-21T00:23:03;99931.72;;;9.87;100.00
49723;BME280;43484;43.608;1.458;2023-03-21T00:25:30;99932.47;;;9.85;100.00
49723;BME280;43484;43.608;1.458;2023-03-21T00:27:58;99935.00;;;9.85;100.00
49723;BME280;43484;43.608;1.458;2023-03-21T00:30:33;99932.38;;;9.82;100.00
49723;BME280;43484;43.608;1.458;2023-03-21T00:33:01;99927.91;;;9.76;100.00
49723;BME280;43484;43.608;1.458;2023-03-21T00:35:45;99927.81;;;9.73;100.00
49723;BME280;43484;43.608;1.458;2023-03-21T00:38:30;99930.97;;;9.66;100.00
49723;BME280;43484;43.608;1.458;2023-03-21T00:40:56;99924.50;;;9.76;100.00
49723;BME280;43484;43.608;1.458;2023-03-21T00:43:30;99931.19;;;9.72;100.00
49723;BME280;43484;43.608;1.458;2023-03-21T00:45:57;99930.41;;;9.75;100.00
49723;BME280;43484;43.608;1.458;2023-03-21T00:48:25;99935.44;;;9.72;100.00
49723;BME280;43484;43.608;1.458;2023-03-21T00:50:54;99935.31;;;9.69;100.00
49723;BME280;43484;43.608;1.458;2023-03-21T00:53:21;99926.72;;;9.67;100.00
49723;BME280;43484;43.608;1.458;2023-03-21T00:55:48;99936.03;;;9.65;100.00
49723;BME280;43484;43.608;1.458;2023-03-21T00:58:16;99927.50;;;9.64;100.00
49723;BME280;43484;43.608;1.458;2023-03-21T01:00:43;99932.50;;;9.61;100.00
49723;BME280;43484;43.608;1.458;2023-03-21T01:03:12;99932.63;;;9.64;100.00
49723;BME280;43484;43.608;1.458;2023-03-21T01:05:50;99922.38;;;9.64;100.00
49723;BME280;43484;43.608;1.458;2023-03-21T01:08:37;99935.78;;;9.57;100.00
49723;BME280;43484;43.608;1.458;2023-03-21T01:11:24;99940.56;;;9.48;100.00
49723;BME280;43484;43.608;1.458;2023-03-21T01:13:51;99946.59;;;9.50;100.00
49723;BME280;43484;43.608;1.458;2023-03-21T01:16:27;99947.16;;;9.42;100.00
49723;BME280;43484;43.608;1.458;2023-03-21T01:18:54;99940.31;;;9.41;100.00
49723;BME280;43484;43.608;1.458;2023-03-21T01:21:21;99944.63;;;9.43;100.00
49723;BME280;43484;43.608;1.458;2023-03-21T01:23:48;99930.94;;;9.41;100.00
49723;BME280;43484;43.608;1.458;2023-03-21T01:26:14;99921.53;;;9.40;100.00
49723;BME280;43484;43.608;1.458;2023-03-21T01:28:42;99919.97;;;9.44;100.00
49723;BME280;43484;43.608;1.458;2023-03-21T01:31:14;99919.06;;;9.43;100.00
49723;BME280;43484;43.608;1.458;2023-03-21T01:33:42;99913.22;;;9.46;100.00
49723;BME280;43484;43.608;1.458;2023-03-21T01:36:15;99905.38;;;9.41;100.00
49723;BME280;43484;43.608;1.458;2023-03-21T01:38:46;99892.72;;;9.44;100.00
49723;BME280;43484;43.608;1.458;2023-03-21T01:41:40;99897.38;;;9.32;100.00
49723;BME280;43484;43.608;1.458;2023-03-21T01:44:15;99879.25;;;9.26;100.00
49723;BME280;43484;43.608;1.458;2023-03-21T01:46:43;99877.69;;;9.30;100.00
49723;BME280;43484;43.608;1.458;2023-03-21T01:49:39;99883.19;;;9.17;100.00
49723;BME280;43484;43.608;1.458;2023-03-21T01:52:10;99868.75;;;9.17;100.00
49723;BME280;43484;43.608;1.458;2023-03-21T01:54:54;99853.22;;;9.13;100.00
49723;BME280;43484;43.608;1.458;2023-03-21T01:57:27;99848.94;;;9.12;100.00
49723;BME280;43484;43.608;1.458;2023-03-21T02:00:09;99838.13;;;9.19;100.00
49723;BME280;43484;43.608;1.458;2023-03-21T02:02:43;99844.97;;;9.20;100.00
49723;BME280;43484;43.608;1.458;2023-03-21T02:05:20;99853.16;;;9.11;100.00
49723;BME280;43484;43.608;1.458;2023-03-21T02:07:48;99849.47;;;9.03;100.00
49723;BME280;43484;43.608;1.458;2023-03-21T02:10:18;99849.31;;;8.99;100.00
49723;BME280;43484;43.608;1.458;2023-03-21T02:12:45;99844.13;;;8.96;100.00
49723;BME280;43484;43.608;1.458;2023-03-21T02:15:13;99844.91;;;8.95;100.00
49723;BME280;43484;43.608;1.458;2023-03-21T02:17:52;99836.72;;;9.03;100.00
49723;BME280;43484;43.608;1.458;2023-03-21T02:36:47;99815.06;;;8.70;100.00
49723;BME280;43484;43.608;1.458;2023-03-21T02:39:23;99811.59;;;8.68;100.00
49723;BME280;43484;43.608;1.458;2023-03-21T02:42:03;99812.53;;;8.70;100.00
49723;BME280;43484;43.608;1.458;2023-03-21T02:47:13;99806.59;;;8.71;100.00
49723;BME280;43484;43.608;1.458;2023-03-21T02:49:57;99808.72;;;8.82;100.00
49723;BME280;43484;43.608;1.458;2023-03-21T02:52:30;99805.75;;;8.70;100.00
49723;BME280;43484;43.608;1.458;2023-03-21T02:55:09;99809.34;;;8.75;100.00
49723;BME280;43484;43.608;1.458;2023-03-21T02:57:40;99810.66;;;8.66;100.00
49723;BME280;43484;43.608;1.458;2023-03-21T03:00:19;99797.78;;;8.63;100.00
49723;BME280;43484;43.608;1.458;2023-03-21T03:02:46;99808.88;;;8.63;100.00
49723;BME280;43484;43.608;1.458;2023-03-21T03:05:28;99814.00;;;8.63;100.00
49723;BME280;43484;43.608;1.458;2023-03-21T03:10:36;99807.94;;;8.61;100.00
49723;BME280;43484;43.608;1.458;2023-03-21T03:18:54;99809.81;;;8.65;100.00
49723;BME280;43484;43.608;1.458;2023-03-21T03:21:29;99803.81;;;8.65;100.00
49723;BME280;43484;43.608;1.458;2023-03-21T03:24:07;99809.69;;;8.62;100.00
49723;BME280;43484;43.608;1.458;2023-03-21T03:26:39;99816.38;;;8.59;100.00
49723;BME280;43484;43.608;1.458;2023-03-21T03:29:10;99815.91;;;8.69;100.00
49723;BME280;43484;43.608;1.458;2023-03-21T03:31:40;99818.22;;;8.63;100.00
49723;BME280;43484;43.608;1.458;2023-03-21T03:34:14;99823.97;;;8.57;100.00
49723;BME280;43484;43.608;1.458;2023-03-21T03:36:44;99827.91;;;8.49;100.00
49723;BME280;43484;43.608;1.458;2023-03-21T03:39:14;99837.19;;;8.47;100.00
49723;BME280;43484;43.608;1.458;2023-03-21T03:41:45;99834.59;;;8.46;100.00
49723;BME280;43484;43.608;1.458;2023-03-21T03:44:33;99838.66;;;8.41;100.00
49723;BME280;43484;43.608;1.458;2023-03-21T03:47:07;99831.19;;;8.45;100.00
49723;BME280;43484;43.608;1.458;2023-03-21T03:49:56;99835.72;;;8.30;100.00
49723;BME280;43484;43.608;1.458;2023-03-21T03:52:29;99839.94;;;8.30;100.00
49723;BME280;43484;43.608;1.458;2023-03-21T03:54:57;99830.47;;;8.27;100.00
49723;BME280;43484;43.608;1.458;2023-03-21T03:57:25;99827.81;;;8.24;100.00
49723;BME280;43484;43.608;1.458;2023-03-21T03:59:52;99822.03;;;8.28;100.00
49723;BME280;43484;43.608;1.458;2023-03-21T04:02:19;99813.31;;;8.23;100.00
49723;BME280;43484;43.608;1.458;2023-03-21T04:04:45;99814.09;;;8.22;100.00
49723;BME280;43484;43.608;1.458;2023-03-21T04:07:12;99818.84;;;8.13;100.00
49723;BME280;43484;43.608;1.458;2023-03-21T04:09:39;99818.69;;;8.09;100.00
49723;BME280;43484;43.608;1.458;2023-03-21T04:12:11;99817.75;;;8.07;100.00
49723;BME280;43484;43.608;1.458;2023-03-21T04:14:38;99804.06;;;8.05;100.00
49723;BME280;43484;43.608;1.458;2023-03-21T04:17:12;99815.16;;;8.05;100.00
49723;BME280;43484;43.608;1.458;2023-03-21T04:19:38;99807.72;;;8.11;100.00
49723;BME280;43484;43.608;1.458;2023-03-21T04:22:05;99812.66;;;8.07;100.00
49723;BME280;43484;43.608;1.458;2023-03-21T04:24:32;99815.72;;;7.98;100.00
49723;BME280;43484;43.608;1.458;2023-03-21T04:26:59;99805.00;;;8.07;100.00
49723;BME280;43484;43.608;1.458;2023-03-21T04:29:26;99806.66;;;8.06;100.00
49723;BME280;43484;43.608;1.458;2023-03-21T04:31:55;99804.59;;;8.18;100.00
49723;BME280;43484;43.608;1.458;2023-03-21T04:34:22;99809.81;;;8.21;100.00
49723;BME280;43484;43.608;1.458;2023-03-21T04:36:54;99823.06;;;8.13;100.00
49723;BME280;43484;43.608;1.458;2023-03-21T04:39:21;99818.13;;;8.17;100.00
49723;BME280;43484;43.608;1.458;2023-03-21T04:41:47;99827.00;;;8.25;100.00
49723;BME280;43484;43.608;1.458;2023-03-21T04:44:15;99829.94;;;8.14;100.00
49723;BME280;43484;43.608;1.458;2023-03-21T04:46:42;99822.56;;;8.21;100.00
49723;BME280;43484;43.608;1.458;2023-03-21T04:49:09;99824.41;;;8.03;100.00
49723;BME280;43484;43.608;1.458;2023-03-21T04:51:36;99820.00;;;7.99;100.00
49723;BME280;43484;43.608;1.458;2023-03-21T04:54:03;99825.97;;;8.00;100.00
49723;BME280;43484;43.608;1.458;2023-03-21T04:56:31;99801.28;;;7.99;100.00
49723;BME280;43484;43.608;1.458;2023-03-21T04:59:02;99802.06;;;7.98;100.00
49723;BME280;43484;43.608;1.458;2023-03-21T05:01:29;99793.84;;;8.05;100.00
49723;BME280;43484;43.608;1.458;2023-03-21T05:03:57;99781.78;;;8.01;100.00
49723;BME280;43484;43.608;1.458;2023-03-21T05:06:25;99795.53;;;8.04;100.00
49723;BME280;43484;43.608;1.458;2023-03-21T05:08:54;99786.41;;;8.11;100.00
49723;BME280;43484;43.608;1.458;2023-03-21T05:11:32;99790.53;;;8.07;100.00
49723;BME280;43484;43.608;1.458;2023-03-21T05:14:01;99804.75;;;8.01;100.00
49723;BME280;43484;43.608;1.458;2023-03-21T05:16:27;99806.38;;;7.99;100.00
49723;BME280;43484;43.608;1.458;2023-03-21T05:18:57;99808.94;;;7.99;100.00
49723;BME280;43484;43.608;1.458;2023-03-21T05:21:31;99807.19;;;7.98;100.00
49723;BME280;43484;43.608;1.458;2023-03-21T05:24:08;99806.38;;;7.99;100.00
49723;BME280;43484;43.608;1.458;2023-03-21T05:26:40;99809.16;;;8.05;100.00
49723;BME280;43484;43.608;1.458;2023-03-21T05:29:08;99818.47;;;8.04;100.00
49723;BME280;43484;43.608;1.458;2023-03-21T05:31:35;99833.50;;;7.97;100.00
49723;BME280;43484;43.608;1.458;2023-03-21T05:34:02;99834.28;;;7.96;100.00
49723;BME280;43484;43.608;1.458;2023-03-21T05:36:28;99837.72;;;7.96;100.00
49723;BME280;43484;43.608;1.458;2023-03-21T05:38:55;99835.28;;;7.99;100.00
49723;BME280;43484;43.608;1.458;2023-03-21T05:41:21;99837.78;;;7.98;100.00
49723;BME280;43484;43.608;1.458;2023-03-21T05:43:48;99846.25;;;7.97;100.00
49723;BME280;43484;43.608;1.458;2023-03-21T05:46:15;99833.69;;;8.01;100.00
49723;BME280;43484;43.608;1.458;2023-03-21T05:48:41;99834.63;;;8.03;100.00
49723;BME280;43484;43.608;1.458;2023-03-21T05:51:08;99836.16;;;8.00;100.00
49723;BME280;43484;43.608;1.458;2023-03-21T05:53:34;99839.44;;;7.97;100.00
49723;BME280;43484;43.608;1.458;2023-03-21T05:56:01;99852.16;;;7.96;100.00
49723;BME280;43484;43.608;1.458;2023-03-21T05:58:28;99860.78;;;7.99;100.00
49723;BME280;43484;43.608;1.458;2023-03-21T06:00:56;99847.38;;;8.03;100.00
49723;BME280;43484;43.608;1.458;2023-03-21T06:03:23;99848.97;;;8.01;100.00
49723;BME280;43484;43.608;1.458;2023-03-21T06:05:50;99844.00;;;8.04;100.00
49723;BME280;43484;43.608;1.458;2023-03-21T06:08:16;99852.41;;;8.02;100.00
49723;BME280;43484;43.608;1.458;2023-03-21T06:10:43;99855.69;;;7.99;100.00
49723;BME280;43484;43.608;1.458;2023-03-21T06:13:10;99867.78;;;8.03;100.00
49723;BME280;43484;43.608;1.458;2023-03-21T06:15:36;99857.91;;;8.12;100.00
49723;BME280;43484;43.608;1.458;2023-03-21T06:18:03;99869.00;;;8.13;100.00
49723;BME280;43484;43.608;1.458;2023-03-21T06:20:30;99855.78;;;8.23;100.00
49723;BME280;43484;43.608;1.458;2023-03-21T06:22:57;99860.25;;;8.27;100.00
49723;BME280;43484;43.608;1.458;2023-03-21T06:25:23;99862.56;;;8.22;100.00
49723;BME280;43484;43.608;1.458;2023-03-21T06:27:50;99866.28;;;8.29;100.00
49723;BME280;43484;43.608;1.458;2023-03-21T06:30:17;99869.69;;;8.29;100.00
49723;BME280;43484;43.608;1.458;2023-03-21T06:32:43;99859.41;;;8.28;100.00
49723;BME280;43484;43.608;1.458;2023-03-21T06:35:10;99858.97;;;8.38;100.00
49723;BME280;43484;43.608;1.458;2023-03-21T06:37:37;99874.78;;;8.29;100.00
49723;BME280;43484;43.608;1.458;2023-03-21T06:40:04;99881.00;;;8.36;100.00
49723;BME280;43484;43.608;1.458;2023-03-21T06:42:33;99881.31;;;8.43;100.00
49723;BME280;43484;43.608;1.458;2023-03-21T06:45:00;99886.69;;;8.51;100.00
49723;BME280;43484;43.608;1.458;2023-03-21T06:47:27;99888.56;;;8.55;100.00
49723;BME280;43484;43.608;1.458;2023-03-21T06:49:54;99894.75;;;8.61;100.00
49723;BME280;43484;43.608;1.458;2023-03-21T06:52:20;99911.13;;;8.66;100.00
49723;BME280;43484;43.608;1.458;2023-03-21T06:54:47;99931.72;;;8.71;100.00
49723;BME280;43484;43.608;1.458;2023-03-21T06:57:13;99943.41;;;8.86;100.00
49723;BME280;43484;43.608;1.458;2023-03-21T06:59:40;99946.00;;;8.88;100.00
49723;BME280;43484;43.608;1.458;2023-03-21T07:02:09;99955.59;;;8.94;100.00
49723;BME280;43484;43.608;1.458;2023-03-21T07:04:36;99958.19;;;8.95;100.00
49723;BME280;43484;43.608;1.458;2023-03-21T07:07:02;99958.66;;;8.85;100.00
49723;BME280;43484;43.608;1.458;2023-03-21T07:09:29;99948.34;;;8.82;100.00
49723;BME280;43484;43.608;1.458;2023-03-21T07:11:56;99948.34;;;8.82;100.00
49723;BME280;43484;43.608;1.458;2023-03-21T07:14:23;99949.78;;;8.75;100.00
49723;BME280;43484;43.608;1.458;2023-03-21T07:16:50;99945.69;;;8.79;100.00
49723;BME280;43484;43.608;1.458;2023-03-21T07:19:17;99952.41;;;8.77;100.00
49723;BME280;43484;43.608;1.458;2023-03-21T07:21:44;99951.94;;;8.87;100.00
49723;BME280;43484;43.608;1.458;2023-03-21T07:24:11;99960.19;;;8.80;100.00
49723;BME280;43484;43.608;1.458;2023-03-21T07:26:37;99958.81;;;8.89;100.00
49723;BME280;43484;43.608;1.458;2023-03-21T07:29:04;99949.03;;;9.00;100.00
49723;BME280;43484;43.608;1.458;2023-03-21T07:31:31;99949.22;;;9.06;100.00
49723;BME280;43484;43.608;1.458;2023-03-21T07:33:58;99962.38;;;9.15;100.00
49723;BME280;43484;43.608;1.458;2023-03-21T07:36:24;99970.78;;;9.13;100.00
49723;BME280;43484;43.608;1.458;2023-03-21T07:38:51;99982.81;;;9.15;100.00
49723;BME280;43484;43.608;1.458;2023-03-21T07:41:18;99979.81;;;9.27;100.00
49723;BME280;43484;43.608;1.458;2023-03-21T07:43:44;99967.56;;;9.40;100.00
49723;BME280;43484;43.608;1.458;2023-03-21T07:46:11;99978.13;;;9.49;100.00
49723;BME280;43484;43.608;1.458;2023-03-21T07:48:38;100002.19;;;9.32;100.00
49723;BME280;43484;43.608;1.458;2023-03-21T07:51:04;100001.66;;;9.41;100.00
49723;BME280;43484;43.608;1.458;2023-03-21T07:53:32;100013.91;;;9.49;100.00
49723;BME280;43484;43.608;1.458;2023-03-21T07:55:58;100013.28;;;9.56;100.00
49723;BME280;43484;43.608;1.458;2023-03-21T07:58:25;100026.09;;;9.56;100.00
49723;BME280;43484;43.608;1.458;2023-03-21T08:00:54;100042.78;;;9.47;100.00
49723;BME280;43484;43.608;1.458;2023-03-21T08:03:24;100059.19;;;9.30;100.00
49723;BME280;43484;43.608;1.458;2023-03-21T08:05:51;100050.81;;;9.56;100.00
49723;BME280;43484;43.608;1.458;2023-03-21T08:08:18;100052.22;;;9.71;100.00
49723;BME280;43484;43.608;1.458;2023-03-21T08:10:45;100068.00;;;9.83;100.00
49723;BME280;43484;43.608;1.458;2023-03-21T08:13:12;100083.25;;;9.80;100.00
49723;BME280;43484;43.608;1.458;2023-03-21T08:15:38;100089.84;;;9.52;100.00
49723;BME280;43484;43.608;1.458;2023-03-21T08:18:08;100084.38;;;9.43;100.00
49723;BME280;43484;43.608;1.458;2023-03-21T08:20:35;100093.63;;;9.17;100.00
49723;BME280;43484;43.608;1.458;2023-03-21T08:23:02;100086.59;;;9.12;100.00
49723;BME280;43484;43.608;1.458;2023-03-21T08:25:29;100095.78;;;9.29;100.00
49723;BME280;43484;43.608;1.458;2023-03-21T08:27:56;100096.44;;;9.45;100.00
49723;BME280;43484;43.608;1.458;2023-03-21T08:30:25;100096.78;;;9.78;100.00
49723;BME280;43484;43.608;1.458;2023-03-21T08:32:57;100119.66;;;9.51;100.00
49723;BME280;43484;43.608;1.458;2023-03-21T08:35:27;100134.16;;;9.51;100.00
49723;BME280;43484;43.608;1.458;2023-03-21T08:37:54;100135.16;;;9.78;100.00
49723;BME280;43484;43.608;1.458;2023-03-21T08:40:21;100143.28;;;10.12;100.00
49723;BME280;43484;43.608;1.458;2023-03-21T08:42:47;100143.16;;;10.31;100.00
49723;BME280;43484;43.608;1.458;2023-03-21T08:45:15;100153.09;;;10.24;100.00
49723;BME280;43484;43.608;1.458;2023-03-21T08:47:42;100164.91;;;9.98;100.00
49723;BME280;43484;43.608;1.458;2023-03-21T08:50:11;100160.22;;;9.86;100.00
49723;BME280;43484;43.608;1.458;2023-03-21T08:52:38;100146.41;;;10.27;100.00
49723;BME280;43484;43.608;1.458;2023-03-21T08:55:05;100137.94;;;10.53;100.00
49723;BME280;43484;43.608;1.458;2023-03-21T08:57:32;100138.28;;;10.64;100.00
49723;BME280;43484;43.608;1.458;2023-03-21T08:59:59;100136.97;;;10.75;100.00
49723;BME280;43484;43.608;1.458;2023-03-21T09:02:25;100140.81;;;10.87;100.00
49723;BME280;43484;43.608;1.458;2023-03-21T09:04:52;100147.16;;;10.98;100.00
49723;BME280;43484;43.608;1.458;2023-03-21T09:07:20;100157.69;;;11.07;100.00
49723;BME280;43484;43.608;1.458;2023-03-21T09:09:47;100162.75;;;11.04;100.00
49723;BME280;43484;43.608;1.458;2023-03-21T09:12:28;100160.28;;;10.82;100.00
49723;BME280;43484;43.608;1.458;2023-03-21T09:14:55;100160.13;;;11.03;100.00
49723;BME280;43484;43.608;1.458;2023-03-21T09:17:21;100158.22;;;10.97;100.00
49723;BME280;43484;43.608;1.458;2023-03-21T09:19:48;100161.50;;;11.18;100.00
49723;BME280;43484;43.608;1.458;2023-03-21T09:22:16;100155.44;;;11.16;100.00
49723;BME280;43484;43.608;1.458;2023-03-21T09:24:43;100154.56;;;11.43;100.00
49723;BME280;43484;43.608;1.458;2023-03-21T09:27:13;100163.25;;;11.48;100.00
49723;BME280;43484;43.608;1.458;2023-03-21T09:29:41;100166.56;;;11.44;100.00
49723;BME280;43484;43.608;1.458;2023-03-21T09:32:10;100166.97;;;11.57;100.00
49723;BME280;43484;43.608;1.458;2023-03-21T09:34:38;100158.50;;;11.60;100.00
49723;BME280;43484;43.608;1.458;2023-03-21T09:37:07;100162.28;;;11.44;100.00
49723;BME280;43484;43.608;1.458;2023-03-21T09:39:39;100166.94;;;11.56;100.00
49723;BME280;43484;43.608;1.458;2023-03-21T09:42:19;100166.41;;;11.66;100.00
49723;BME280;43484;43.608;1.458;2023-03-21T09:47:21;100165.03;;;11.75;100.00
49723;BME280;43484;43.608;1.458;2023-03-21T09:49:58;100166.88;;;11.81;100.00
49723;BME280;43484;43.608;1.458;2023-03-21T09:52:50;100162.66;;;11.83;100.00
49723;BME280;43484;43.608;1.458;2023-03-21T09:55:23;100159.34;;;11.85;100.00
49723;BME280;43484;43.608;1.458;2023-03-21T09:58:01;100158.81;;;11.97;100.00
49723;BME280;43484;43.608;1.458;2023-03-21T10:00:43;100158.72;;;11.94;100.00
49723;BME280;43484;43.608;1.458;2023-03-21T10:05:44;100148.59;;;11.98;100.00
49723;BME280;43484;43.608;1.458;2023-03-21T10:08:17;100151.97;;;11.97;100.00
49723;BME280;43484;43.608;1.458;2023-03-21T10:10:54;100141.69;;;11.97;100.00
49723;BME280;43484;43.608;1.458;2023-03-21T10:13:25;100133.50;;;12.09;100.00
49723;BME280;43484;43.608;1.458;2023-03-21T10:15:57;100133.69;;;12.16;100.00
49723;BME280;43484;43.608;1.458;2023-03-21T10:18:28;100123.63;;;12.24;100.00
49723;BME280;43484;43.608;1.458;2023-03-21T10:20:56;100123.88;;;12.33;100.00
49723;BME280;43484;43.608;1.458;2023-03-21T10:23:27;100116.53;;;12.46;100.00
49723;BME280;43484;43.608;1.458;2023-03-21T10:25:57;100112.44;;;12.54;100.00
49723;BME280;43484;43.608;1.458;2023-03-21T10:28:32;100122.91;;;12.60;100.00
49723;BME280;43484;43.608;1.458;2023-03-21T10:31:19;100114.00;;;12.81;100.00
49723;BME280;43484;43.608;1.458;2023-03-21T10:33:48;100110.47;;;12.77;100.00
49723;BME280;43484;43.608;1.458;2023-03-21T10:36:25;100113.84;;;12.76;100.00
49723;BME280;43484;43.608;1.458;2023-03-21T10:38:59;100107.31;;;12.87;100.00
49723;BME280;43484;43.608;1.458;2023-03-21T10:41:27;100113.47;;;12.94;100.00
49723;BME280;43484;43.608;1.458;2023-03-21T10:46:34;100107.13;;;13.14;100.00
49723;BME280;43484;43.608;1.458;2023-03-21T10:49:02;100114.94;;;13.18;100.00
49723;BME280;43484;43.608;1.458;2023-03-21T10:51:35;100129.78;;;13.30;100.00
49723;BME280;43484;43.608;1.458;2023-03-21T10:54:07;100123.25;;;13.44;100.00
49723;BME280;43484;43.608;1.458;2023-03-21T10:56:42;100130.34;;;13.54;100.00
49723;BME280;43484;43.608;1.458;2023-03-21T10:59:16;100130.63;;;13.66;100.00
49723;BME280;43484;43.608;1.458;2023-03-21T11:01:51;100130.66;;;13.67;100.00
49723;BME280;43484;43.608;1.458;2023-03-21T11:04:21;100132.34;;;13.67;100.00
49723;BME280;43484;43.608;1.458;2023-03-21T11:06:54;100138.28;;;13.63;100.00
49723;BME280;43484;43.608;1.458;2023-03-21T11:09:24;100133.53;;;13.81;100.00
49723;BME280;43484;43.608;1.458;2023-03-21T11:12:01;100141.63;;;13.99;100.00
49723;BME280;43484;43.608;1.458;2023-03-21T11:14:39;100141.19;;;13.78;100.00
49723;BME280;43484;43.608;1.458;2023-03-21T11:19:59;100134.28;;;13.77;100.00
49723;BME280;43484;43.608;1.458;2023-03-21T11:22:29;100124.31;;;13.94;100.00
49723;BME280;43484;43.608;1.458;2023-03-21T11:25:06;100128.00;;;14.05;100.00
49723;BME280;43484;43.608;1.458;2023-03-21T11:27:33;100128.84;;;14.05;100.00
49723;BME280;43484;43.608;1.458;2023-03-21T11:30:01;100133.16;;;14.05;100.00
49723;BME280;43484;43.608;1.458;2023-03-21T11:32:35;100125.09;;;14.30;100.00
49723;BME280;43484;43.608;1.458;2023-03-21T11:35:14;100124.56;;;14.06;100.00
49723;BME280;43484;43.608;1.458;2023-03-21T11:37:49;100117.91;;;14.17;100.00
49723;BME280;43484;43.608;1.458;2023-03-21T11:40:23;100126.81;;;14.29;100.00
49723;BME280;43484;43.608;1.458;2023-03-21T11:42:54;100121.84;;;14.38;100.00
49723;BME280;43484;43.608;1.458;2023-03-21T11:45:31;100122.50;;;14.28;100.00
49723;BME280;43484;43.608;1.458;2023-03-21T11:48:00;100118.34;;;14.36;100.00
49723;BME280;43484;43.608;1.458;2023-03-21T11:50:36;100117.09;;;14.18;100.00
49723;BME280;43484;43.608;1.458;2023-03-21T11:56:23;100114.53;;;14.62;100.00
49723;BME280;43484;43.608;1.458;2023-03-21T12:05:03;100102.16;;;14.94;100.00
49723;BME280;43484;43.608;1.458;2023-03-21T12:21:14;100069.75;;;15.09;100.00
49723;BME280;43484;43.608;1.458;2023-03-21T12:26:59;100062.16;;;15.20;100.00
49723;BME280;43484;43.608;1.458;2023-03-21T12:43:22;100063.16;;;15.92;100.00
49723;BME280;43484;43.608;1.458;2023-03-21T12:45:57;100051.53;;;15.59;100.00
49723;BME280;43484;43.608;1.458;2023-03-21T12:48:40;100044.09;;;15.86;100.00
49723;BME280;43484;43.608;1.458;2023-03-21T12:51:14;100040.75;;;15.94;100.00
49723;BME280;43484;43.608;1.458;2023-03-21T12:56:34;100034.44;;;15.67;100.00
49723;BME280;43484;43.608;1.458;2023-03-21T12:59:49;100020.06;;;15.91;100.00
49723;BME280;43484;43.608;1.458;2023-03-21T13:02:32;100031.16;;;15.83;100.00
49723;BME280;43484;43.608;1.458;2023-03-21T13:07:36;100015.00;;;15.99;100.00
49723;BME280;43484;43.608;1.458;2023-03-21T13:10:13;100019.53;;;16.22;100.00
49723;BME280;43484;43.608;1.458;2023-03-21T13:12:46;100020.50;;;16.33;100.00
49723;BME280;43484;43.608;1.458;2023-03-21T13:15:38;100016.00;;;16.14;100.00
49723;BME280;43484;43.608;1.458;2023-03-21T13:18:18;100016.13;;;16.26;100.00
49723;BME280;43484;43.608;1.458;2023-03-21T13:20:55;100020.47;;;16.29;100.00
49723;BME280;43484;43.608;1.458;2023-03-21T13:23:24;100017.16;;;15.63;100.00
49723;BME280;43484;43.608;1.458;2023-03-21T13:25:53;100010.47;;;15.80;100.00
49723;BME280;43484;43.608;1.458;2023-03-21T13:28:25;100006.38;;;15.98;100.00
49723;BME280;43484;43.608;1.458;2023-03-21T13:31:21;100003.44;;;15.67;100.00
49723;BME280;43484;43.608;1.458;2023-03-21T13:33:51;99998.47;;;15.85;100.00
49723;BME280;43484;43.608;1.458;2023-03-21T13:36:27;99997.84;;;16.07;100.00
49723;BME280;43484;43.608;1.458;2023-03-21T13:38:59;99987.53;;;16.11;100.00
49723;BME280;43484;43.608;1.458;2023-03-21T13:41:31;99989.94;;;15.93;100.00
49723;BME280;43484;43.608;1.458;2023-03-21T13:49:13;99980.00;;;16.34;100.00
49723;BME280;43484;43.608;1.458;2023-03-21T13:51:49;99979.78;;;16.13;100.00
49723;BME280;43484;43.608;1.458;2023-03-21T13:54:21;99984.16;;;16.15;100.00
49723;BME280;43484;43.608;1.458;2023-03-21T13:57:03;99984.28;;;16.30;100.00
49723;BME280;43484;43.608;1.458;2023-03-21T13:59:43;99978.72;;;15.91;100.00
49723;BME280;43484;43.608;1.458;2023-03-21T14:02:31;99979.63;;;15.96;100.00
49723;BME280;43484;43.608;1.458;2023-03-21T14:05:04;99976.22;;;15.97;100.00
49723;BME280;43484;43.608;1.458;2023-03-21T14:07:35;99970.97;;;15.90;100.00
49723;BME280;43484;43.608;1.458;2023-03-21T14:10:16;99978.06;;;16.10;100.00
49723;BME280;43484;43.608;1.458;2023-03-21T14:12:43;99975.53;;;16.16;100.00
49723;BME280;43484;43.608;1.458;2023-03-21T14:15:26;99972.19;;;16.28;100.00
49723;BME280;43484;43.608;1.458;2023-03-21T14:17:58;99971.41;;;16.41;100.00
49723;BME280;43484;43.608;1.458;2023-03-21T14:20:33;99968.75;;;16.27;100.00
49723;BME280;43484;43.608;1.458;2023-03-21T14:23:05;99975.63;;;16.27;100.00
49723;BME280;43484;43.608;1.458;2023-03-21T14:25:35;99965.41;;;16.42;100.00
49723;BME280;43484;43.608;1.458;2023-03-21T14:28:21;99955.09;;;16.44;100.00
49723;BME280;43484;43.608;1.458;2023-03-21T14:30:55;99954.31;;;16.52;100.00
49723;BME280;43484;43.608;1.458;2023-03-21T14:33:40;99950.09;;;16.63;100.00
49723;BME280;43484;43.608;1.458;2023-03-21T14:36:13;99942.28;;;16.53;100.00
49723;BME280;43484;43.608;1.458;2023-03-21T14:38:41;99952.56;;;16.50;100.00
49723;BME280;43484;43.608;1.458;2023-03-21T14:41:20;99951.78;;;16.61;100.00